Detalii statie Enten Pioneer Sânnicolau Mare [ENTEN003]

Toti senzorii

Date Temperatura solului [C]Precipitatii [mm]Viteza vantului [m/s]Voltaj baterie [mV]Leaf Wetness [Min]HC Air temperature [C]HC Relative humidity [%]Punctul de roua [C]
medieminmaxsumasumaultimatimpmedieminmaxmediemediemin
2017-06-25 06:13:25 -36.83 -36.90 -36.63 0.00 5.17 8.50 0.00 18.97 17.87 20.16 80.30 15.48
2017-06-25 07:13:25 -37.03 -37.17 -36.93 0.00 6.32 8.39 0.00 22.20 20.87 23.44 68.70 16.17
2017-06-25 08:13:25 -37.32 -37.35 -37.25 0.00 7.63 8.40 0.00 24.99 24.19 25.53 60.72 16.88
2017-06-25 09:13:25 -37.46 -37.57 -37.37 0.00 5.64 8.11 0.00 26.71 26.06 27.70 55.74 17.12
2017-06-25 10:13:25 -37.74 -37.80 -37.67 0.00 7.20 7.83 0.00 28.15 27.68 28.96 52.48 17.51
2017-06-25 11:13:23 -37.83 -37.84 -37.82 0.00 5.70 7.66 0.00 29.92 29.43 30.33 47.94 17.70
2017-06-25 12:13:23 -37.84 -37.89 -37.79 0.00 4.77 8.48 0.00 30.18 29.86 30.48 49.09 18.32
2017-06-25 13:13:23 -37.90 -37.97 -37.86 0.00 9.00 8.44 0.00 31.63 30.59 32.08 46.78 18.86
2017-06-25 14:13:23 -38.17 -38.25 -38.06 0.00 7.79 7.88 0.00 32.66 32.40 32.94 43.76 18.73
2017-06-25 15:13:23 -38.27 -38.33 -38.21 0.00 10.88 7.99 0.00 33.71 33.47 33.88 37.76 17.31
2017-06-25 16:13:23 -38.47 -39.14 -38.30 0.00 9.94 8.28 0.00 33.36 33.10 33.53 36.10 16.30
2017-06-25 17:13:23 -38.44 -38.57 -38.36 0.00 10.08 8.32 0.00 33.27 32.94 33.43 37.01 16.61
2017-06-25 18:13:23 -262.07 -273.15 -230.35 0.00 8.82 8.59 0.00 31.78 31.22 32.63 39.10 16.16
2017-06-25 19:13:23 -272.39 -273.15 -271.59 0.00 6.98 8.58 0.00 28.80 26.20 30.44 50.12 17.21
2017-06-25 20:13:23 -272.78 -273.15 -272.40 0.00 15.76 8.56 0.21 23.29 22.46 25.03 67.78 16.99
2017-06-25 21:13:23 -272.78 -273.15 -272.33 0.00 9.21 8.54 0.00 22.18 21.98 22.44 73.10 17.13
2017-06-25 22:13:23 -273.15 -273.15 -273.15 0.00 11.32 8.52 0.00 22.60 22.02 23.04 72.65 17.43
2017-06-25 23:13:23 -272.63 -273.15 -271.75 0.00 12.65 8.51 0.00 21.88 21.53 22.42 77.55 17.78
2017-06-26 00:13:23 -273.00 -273.15 -272.42 0.20 10.52 8.50 22.29 20.89 19.96 21.37 82.87 17.86
2017-06-26 01:13:22 -268.14 -272.46 -251.00 0.60 6.36 8.48 100.00 19.39 19.16 19.61 90.11 17.72
2017-06-26 02:13:22 -141.32 -228.09 -59.56 0.40 4.37 8.48 100.00 19.16 19.14 19.18 92.58 17.92
2017-06-26 03:13:23 -74.49 -77.21 -72.08 0.20 8.42 8.47 100.00 19.28 19.27 19.32 92.30 18.00
2017-06-26 04:13:22 -83.89 -96.99 -75.28 0.40 7.65 8.45 100.00 18.87 18.50 19.22 93.16 17.73
2017-06-26 05:13:22 -171.43 -248.38 -111.04 0.00 1.56 8.49 100.00 18.50 18.34 18.75 94.43 17.58
2017-06-26 06:13:22 -173.37 -254.77 -108.50 0.20 5.22 8.50 45.64 18.70 18.60 18.75 94.60 17.81
2017-06-26 07:13:19 -155.57 -161.70 -146.57 0.00 4.56 8.51 41.71 19.31 18.76 19.99 94.80 18.45
2017-06-26 08:13:19 -227.12 -271.11 -107.52 0.00 8.42 8.50 24.57 20.51 19.90 21.06 90.14 18.83
2017-06-26 09:13:19 -140.22 -233.70 -82.42 0.00 7.52 8.54 0.00 21.97 21.38 22.53 81.65 18.68
2017-06-26 10:13:19 -272.77 -273.15 -272.36 0.00 7.50 8.51 0.00 23.72 23.04 24.15 72.22 18.41
2017-06-26 11:13:19 -272.97 -273.15 -272.44 0.00 9.67 8.49 0.00 24.83 24.42 25.12 67.07 18.30
2017-06-26 12:13:19 -272.98 -273.15 -272.48 0.00 11.70 8.49 0.00 25.46 25.14 25.90 63.87 18.12
2017-06-26 13:13:19 -272.96 -273.15 -272.37 0.00 14.03 8.48 0.00 25.84 25.12 26.91 60.76 17.66
2017-06-26 14:13:19 -273.04 -273.15 -272.48 0.00 13.41 8.38 0.00 26.60 26.38 26.78 57.17 17.42
2017-06-26 15:13:19 -272.77 -273.15 -272.37 0.00 12.52 8.47 0.00 27.02 26.71 27.46 53.70 16.81
2017-06-26 16:13:19 -272.24 -273.15 -271.64 0.00 12.59 8.49 0.00 27.98 27.48 28.21 43.88 14.56
2017-06-26 17:13:19 -273.00 -273.15 -272.41 0.00 11.27 8.49 0.00 27.76 27.20 27.97 48.23 15.83
2017-06-26 18:13:19 -272.97 -273.15 -272.42 0.00 11.25 8.56 0.00 27.32 27.01 27.50 50.95 16.29
2017-06-26 19:13:19 -272.80 -273.15 -272.44 0.00 8.08 8.58 0.00 25.74 24.70 26.58 51.02 14.84
2017-06-26 20:13:19 -273.15 -273.15 -273.15 0.00 1.23 8.57 0.00 22.22 21.20 23.60 65.24 15.37
2017-06-26 21:13:19 -272.97 -273.15 -272.42 0.00 0.00 8.54 0.00 20.29 19.87 20.84 76.12 15.94
2017-06-26 22:13:19 -272.98 -273.15 -272.48 0.00 1.47 8.52 0.00 19.98 19.65 20.28 77.25 15.87
2017-06-26 23:13:20 -272.29 -273.15 -271.75 0.00 2.32 8.51 0.00 18.98 18.82 19.27 79.90 15.43
2017-06-27 00:13:19 -272.41 -273.15 -271.01 0.00 1.13 8.49 0.00 18.24 17.70 18.82 82.42 15.19
2017-06-27 01:13:19 -272.96 -273.15 -272.39 0.00 0.84 8.48 0.00 16.56 16.18 17.45 87.20 14.42
2017-06-27 02:13:19 -272.80 -273.15 -272.44 0.00 0.00 8.47 0.00 15.51 15.29 16.07 90.51 13.96
2017-06-27 03:13:19 -272.60 -273.15 -271.73 0.00 1.00 8.46 0.00 15.06 14.82 15.36 91.53 13.70
2017-06-27 04:13:19 -271.89 -273.15 -270.91 0.00 0.00 8.45 0.00 14.59 13.92 14.92 91.65 13.25
2017-06-27 05:13:19 -272.80 -273.15 -272.46 0.00 1.17 8.47 0.00 14.17 14.08 14.26 92.36 12.94